Главная страница
METAR-TAF:

METAR-TAF

Аэропорты :

Рим-Фьюмичино, Италия

Фьюмичино

широта: 41-48N, долгота: 012-14E, высота над уровнем моря: 2 м

Текущие метеонаблюдения

Эта сводка был подготовлена 29 минут назад, в 11:50 UTC
Ветер 11 Узел от юго-юго-восточный
Температура 14°C
Влажность 63%
Давление 1015 hPa
Видимость 10 км и более
Нет облачности ниже 1500 м, и нет кучево-дождевой облачности

METAR: LIRF 221150Z 16011KT CAVOK 14/07 Q1015 NOSIG

Время: 13:19 (12:19 UTC)

Прогноз

Эта сводка был подготовлена 1 час и 19 минут назад, в 11:00 UTC
Прогноз действительный с 22-го 12 UTC до 23-го 18 UTC
Ветер 13 Узел от юго-восточный
Видимость 10 км и более
Отдельные облака на высоте 3000 фута
изменения
С 22-го 21 UTC до 22-го 23 UTC
Ветер 7 Узел от восточно-северо-восточный
временами
С 23-го 00 UTC до 23-го 03 UTC
дождь

TAF: LIRF 221100Z 2212/2318 14013KT 9999 SCT030 BECMG 2221/2223 06007KT TEMPO 2300/2303 RA

Метеонаблюдения и прогнозы для более 4000 аэропортов (сводки METAR и TAF).

Имеющиеся станции представлены на карте желтыми и красными точками.

Чтобы увидеть название станции, наведите на нее мышь.

Затем щелкните, чтобы увидеть метеонаблюдения и метеопрогнозы.

Управление картой: чтобы увеличить масштаб, щелкните зеленые кнопки с черным крестиком; чтобы уменьшить масштаб, щелкните зеленую кнопку с тире; для просмотра соседних карт щелкайте зеленые стрелки.


METAR-TAF: